Wetterdaten: Woche 16.03.09 - 22.03.09 (KW12)
Datum Zeit Temperatur Luftfeuchte Luftdruck Niederschlag Windrichtung Wind
16.03.2009 00:00 3,6 C 96 % 1030,3 hPa 0,0 l/m N 0,0 km/h (0 Bft)
16.03.2009 01:00 3,6 C 96 % 1030,7 hPa 0,0 l/m N 0,0 km/h (0 Bft)
16.03.2009 02:00 3,6 C 96 % 1030,5 hPa 0,0 l/m N 0,0 km/h (0 Bft)
16.03.2009 03:00 3,5 C 96 % 1030,2 hPa 0,0 l/m N 0,1 km/h (0 Bft)
16.03.2009 04:00 3,5 C 96 % 1030,3 hPa 0,0 l/m N 0,1 km/h (0 Bft)
16.03.2009 05:00 3,2 C 95 % 1030,5 hPa 0,0 l/m N 0,4 km/h (0 Bft)
16.03.2009 06:00 2,5 C 94 % 1030,5 hPa 0,0 l/m S 1,3 km/h (1 Bft)
16.03.2009 07:00 1,6 C 95 % 1030,8 hPa 0,0 l/m S 2,9 km/h (1 Bft)
16.03.2009 08:00 2,7 C 98 % 1031,4 hPa 0,0 l/m O-NO 3,1 km/h (1 Bft)
16.03.2009 09:00 4,9 C 95 % 1031,8 hPa 0,0 l/m S-SO 7,4 km/h (2 Bft)
16.03.2009 10:00 7,5 C 82 % 1031,9 hPa 0,0 l/m SO 12,9 km/h (3 Bft)
16.03.2009 11:00 7,9 C 75 % 1031,9 hPa 0,0 l/m O-NO 9,3 km/h (2 Bft)
16.03.2009 12:00 7,8 C 72 % 1031,6 hPa 0,0 l/m NO 6,8 km/h (2 Bft)
16.03.2009 13:00 8,5 C 66 % 1031,1 hPa 0,0 l/m NO 9,5 km/h (2 Bft)
16.03.2009 14:00 8,9 C 64 % 1030,9 hPa 0,0 l/m O-NO 9,8 km/h (2 Bft)
16.03.2009 15:00 9,0 C 64 % 1030,8 hPa 0,0 l/m NO 10,5 km/h (2 Bft)
16.03.2009 16:00 8,9 C 62 % 1030,8 hPa 0,0 l/m O 6,4 km/h (2 Bft)
16.03.2009 17:00 8,5 C 66 % 1031,0 hPa 0,0 l/m N-NO 7,6 km/h (2 Bft)
16.03.2009 18:00 7,4 C 71 % 1031,3 hPa 0,0 l/m N-NO 2,5 km/h (1 Bft)
16.03.2009 19:00 5,4 C 78 % 1031,7 hPa 0,0 l/m N-NO 2,1 km/h (1 Bft)
16.03.2009 20:00 3,9 C 82 % 1031,7 hPa 0,0 l/m N-NO 0,4 km/h (0 Bft)
16.03.2009 21:00 2,8 C 86 % 1031,7 hPa 0,0 l/m N 3,5 km/h (1 Bft)
16.03.2009 22:00 2,1 C 89 % 1031,8 hPa 0,0 l/m N 3,3 km/h (1 Bft)
16.03.2009 23:00 1,8 C 90 % 1031,6 hPa 0,0 l/m N 3,1 km/h (1 Bft)
17.03.2009 00:00 1,3 C 90 % 1031,2 hPa 0,0 l/m N 3,2 km/h (1 Bft)
17.03.2009 01:00 0,8 C 92 % 1031,1 hPa 0,0 l/m N 3,5 km/h (1 Bft)
17.03.2009 02:00 0,6 C 94 % 1030,7 hPa 0,0 l/m N-NW 3,9 km/h (1 Bft)
17.03.2009 03:00 0,4 C 94 % 1030,0 hPa 0,0 l/m N-NW 4,1 km/h (1 Bft)
17.03.2009 04:00 0,3 C 95 % 1029,9 hPa 0,0 l/m N-NW 6,0 km/h (2 Bft)
17.03.2009 05:00 0,3 C 96 % 1030,3 hPa 0,0 l/m NW 7,4 km/h (2 Bft)
17.03.2009 06:00 0,1 C 95 % 1030,5 hPa 0,0 l/m NW 1,2 km/h (1 Bft)
17.03.2009 07:00 -0,2 C 96 % 1031,0 hPa 0,0 l/m NW 2,3 km/h (1 Bft)
17.03.2009 08:00 1,4 C 98 % 1031,4 hPa 0,0 l/m N-NO 3,2 km/h (1 Bft)
17.03.2009 09:00 3,7 C 93 % 1031,7 hPa 0,0 l/m NO 6,0 km/h (2 Bft)
17.03.2009 10:00 6,3 C 82 % 1031,7 hPa 0,0 l/m NO 5,7 km/h (1 Bft)
17.03.2009 11:00 8,6 C 73 % 1031,7 hPa 0,0 l/m NO 8,9 km/h (2 Bft)
17.03.2009 12:00 9,6 C 66 % 1031,5 hPa 0,0 l/m O-NO 9,4 km/h (2 Bft)
17.03.2009 13:00 10,3 C 60 % 1031,3 hPa 0,0 l/m O-SO 9,0 km/h (2 Bft)
17.03.2009 14:00 10,9 C 57 % 1030,9 hPa 0,0 l/m N-NO 10,2 km/h (2 Bft)
17.03.2009 15:00 11,7 C 55 % 1030,4 hPa 0,0 l/m O-SO 9,1 km/h (2 Bft)
17.03.2009 16:00 11,2 C 56 % 1030,4 hPa 0,0 l/m NO 9,2 km/h (2 Bft)
17.03.2009 17:00 10,5 C 61 % 1030,4 hPa 0,0 l/m O-NO 8,2 km/h (2 Bft)
17.03.2009 18:00 9,2 C 69 % 1030,9 hPa 0,0 l/m NO 5,6 km/h (1 Bft)
17.03.2009 19:00 6,7 C 79 % 1031,4 hPa 0,0 l/m N 5,3 km/h (1 Bft)
17.03.2009 20:00 5,1 C 85 % 1032,0 hPa 0,0 l/m N 6,1 km/h (2 Bft)
17.03.2009 21:00 4,5 C 86 % 1032,4 hPa 0,0 l/m N 6,4 km/h (2 Bft)
17.03.2009 22:00 3,9 C 86 % 1032,9 hPa 0,0 l/m N 2,1 km/h (1 Bft)
17.03.2009 23:00 2,8 C 89 % 1032,8 hPa 0,0 l/m N 1,5 km/h (1 Bft)
18.03.2009 00:00 1,8 C 90 % 1032,9 hPa 0,0 l/m N 1,5 km/h (1 Bft)
18.03.2009 01:00 1,0 C 92 % 1033,0 hPa 0,0 l/m N 0,7 km/h (0 Bft)
18.03.2009 02:00 0,3 C 93 % 1032,9 hPa 0,0 l/m N 2,3 km/h (1 Bft)
18.03.2009 03:00 0,2 C 95 % 1032,3 hPa 0,0 l/m N 0,9 km/h (0 Bft)
18.03.2009 04:00 -0,2 C 94 % 1032,2 hPa 0,0 l/m N 0,0 km/h (0 Bft)
18.03.2009 05:00 -1,1 C 93 % 1032,3 hPa 0,0 l/m N 0,0 km/h (0 Bft)
18.03.2009 06:00 -1,8 C 93 % 1032,4 hPa 0,0 l/m N 1,6 km/h (1 Bft)
18.03.2009 07:00 -2,0 C 95 % 1032,2 hPa 0,0 l/m N 1,2 km/h (1 Bft)
18.03.2009 08:00 -0,4 C 98 % 1032,1 hPa 0,0 l/m N 5,6 km/h (1 Bft)
18.03.2009 09:00 2,1 C 94 % 1031,8 hPa 0,2 l/m N-NO 6,7 km/h (2 Bft)
18.03.2009 10:00 4,8 C 79 % 1031,7 hPa 0,0 l/m NO 10,1 km/h (2 Bft)
18.03.2009 11:00 7,0 C 56 % 1031,4 hPa 0,0 l/m O-NO 14,1 km/h (3 Bft)
18.03.2009 12:00 8,2 C 44 % 1030,7 hPa 0,0 l/m NO 15,7 km/h (3 Bft)
18.03.2009 13:00 9,6 C 37 % 1029,9 hPa 0,0 l/m NO 14,6 km/h (3 Bft)
18.03.2009 14:00 10,4 C 29 % 1029,2 hPa 0,0 l/m N-NO 16,1 km/h (3 Bft)
18.03.2009 15:00 10,2 C 30 % 1028,7 hPa 0,0 l/m O-NO 14,2 km/h (3 Bft)
18.03.2009 16:00 10,1 C 31 % 1028,3 hPa 0,0 l/m NO 10,1 km/h (2 Bft)
18.03.2009 17:00 9,7 C 33 % 1028,0 hPa 0,0 l/m O-NO 7,2 km/h (2 Bft)
18.03.2009 18:00 8,3 C 39 % 1028,1 hPa 0,0 l/m NO 3,7 km/h (1 Bft)
18.03.2009 19:00 5,8 C 49 % 1027,8 hPa 0,0 l/m N 0,1 km/h (0 Bft)
18.03.2009 20:00 3,9 C 54 % 1027,2 hPa 0,0 l/m N 1,7 km/h (1 Bft)
18.03.2009 21:00 2,8 C 58 % 1026,9 hPa 0,0 l/m N 0,1 km/h (0 Bft)
18.03.2009 22:00 2,0 C 62 % 1026,5 hPa 0,0 l/m N-NO 0,9 km/h (0 Bft)
18.03.2009 23:00 1,1 C 60 % 1026,0 hPa 0,0 l/m N 3,3 km/h (1 Bft)
19.03.2009 00:00 0,5 C 62 % 1025,6 hPa 0,0 l/m N 2,1 km/h (1 Bft)
19.03.2009 01:00 -0,3 C 70 % 1025,2 hPa 0,0 l/m N 0,3 km/h (0 Bft)
19.03.2009 02:00 -0,9 C 75 % 1024,7 hPa 0,0 l/m N 0,1 km/h (0 Bft)
19.03.2009 03:00 -1,3 C 77 % 1024,1 hPa 0,0 l/m N 0,3 km/h (0 Bft)
19.03.2009 04:00 -1,8 C 78 % 1023,8 hPa 0,0 l/m N 0,5 km/h (0 Bft)
19.03.2009 05:00 -1,8 C 81 % 1023,6 hPa 0,0 l/m N-NO 1,9 km/h (1 Bft)
19.03.2009 06:00 -1,9 C 82 % 1023,2 hPa 0,0 l/m N 0,0 km/h (0 Bft)
19.03.2009 07:00 -1,6 C 84 % 1022,7 hPa 0,0 l/m N 0,8 km/h (0 Bft)
19.03.2009 08:00 -0,1 C 82 % 1022,3 hPa 0,0 l/m N 1,3 km/h (1 Bft)
19.03.2009 09:00 2,4 C 70 % 1022,4 hPa 0,0 l/m N-NO 3,2 km/h (1 Bft)
19.03.2009 10:00 5,6 C 46 % 1022,2 hPa 0,0 l/m O 3,7 km/h (1 Bft)
19.03.2009 11:00 7,4 C 39 % 1021,8 hPa 0,0 l/m N-NO 10,2 km/h (2 Bft)
19.03.2009 12:00 8,7 C 38 % 1021,6 hPa 0,0 l/m N-NO 16,0 km/h (3 Bft)
19.03.2009 13:00 8,9 C 37 % 1021,3 hPa 0,0 l/m NO 16,1 km/h (3 Bft)
19.03.2009 14:00 8,5 C 32 % 1021,2 hPa 0,0 l/m N-NO 20,1 km/h (4 Bft)
19.03.2009 15:00 8,1 C 33 % 1021,6 hPa 0,0 l/m N-NO 20,4 km/h (4 Bft)
19.03.2009 16:00 7,5 C 39 % 1021,8 hPa 0,0 l/m N-NO 17,0 km/h (3 Bft)
19.03.2009 17:00 6,8 C 41 % 1022,4 hPa 0,0 l/m NO 18,8 km/h (3 Bft)
19.03.2009 18:00 5,9 C 51 % 1023,2 hPa 0,0 l/m NO 20,2 km/h (4 Bft)
19.03.2009 19:00 4,7 C 61 % 1023,9 hPa 0,0 l/m NO 20,0 km/h (4 Bft)
19.03.2009 20:00 3,7 C 65 % 1024,6 hPa 0,0 l/m NO 16,6 km/h (3 Bft)
19.03.2009 21:00 3,0 C 68 % 1025,0 hPa 0,0 l/m O-NO 17,2 km/h (3 Bft)
19.03.2009 22:00 1,9 C 68 % 1025,4 hPa 0,0 l/m O-NO 13,6 km/h (3 Bft)
19.03.2009 23:00 0,7 C 72 % 1025,8 hPa 0,0 l/m NO 14,9 km/h (3 Bft)
20.03.2009 00:00 -0,1 C 78 % 1025,8 hPa 0,0 l/m NO 9,3 km/h (2 Bft)
20.03.2009 01:00 -0,7 C 81 % 1026,2 hPa 0,0 l/m NO 6,0 km/h (2 Bft)
20.03.2009 02:00 -1,3 C 83 % 1026,1 hPa 0,0 l/m N-NO 5,1 km/h (1 Bft)
20.03.2009 03:00 -1,7 C 87 % 1025,7 hPa 0,0 l/m N-NO 6,9 km/h (2 Bft)
20.03.2009 04:00 -1,9 C 87 % 1025,3 hPa 0,0 l/m N-NO 6,1 km/h (2 Bft)
20.03.2009 05:00 -2,3 C 89 % 1025,3 hPa 0,0 l/m N 4,7 km/h (1 Bft)
20.03.2009 06:00 -1,8 C 86 % 1025,7 hPa 0,0 l/m N-NO 13,1 km/h (3 Bft)
20.03.2009 07:00 -1,2 C 80 % 1026,2 hPa 0,0 l/m NO 18,1 km/h (3 Bft)
20.03.2009 08:00 -0,7 C 76 % 1026,5 hPa 0,0 l/m O-NO 18,4 km/h (3 Bft)
20.03.2009 09:00 -0,6 C 80 % 1027,2 hPa 0,0 l/m O-NO 17,2 km/h (3 Bft)
20.03.2009 10:00 0,0 C 75 % 1027,8 hPa 0,0 l/m O 22,4 km/h (4 Bft)
20.03.2009 11:00 0,3 C 74 % 1028,0 hPa 0,0 l/m O-NO 18,2 km/h (3 Bft)
20.03.2009 12:00 1,4 C 61 % 1028,3 hPa 0,0 l/m O-NO 20,9 km/h (4 Bft)
20.03.2009 13:00 1,4 C 59 % 1028,4 hPa 0,0 l/m O-NO 19,8 km/h (4 Bft)
20.03.2009 14:00 2,4 C 49 % 1028,0 hPa 0,0 l/m NO 18,9 km/h (3 Bft)
20.03.2009 15:00 2,6 C 49 % 1028,0 hPa 0,0 l/m N-NO 20,5 km/h (4 Bft)
20.03.2009 16:00 2,5 C 51 % 1028,1 hPa 0,0 l/m NO 20,0 km/h (4 Bft)
20.03.2009 17:00 2,1 C 52 % 1028,3 hPa 0,0 l/m NO 15,7 km/h (3 Bft)
20.03.2009 18:00 1,2 C 56 % 1028,8 hPa 0,0 l/m NO 13,8 km/h (3 Bft)
20.03.2009 19:00 0,4 C 60 % 1029,0 hPa 0,0 l/m O-NO 10,2 km/h (2 Bft)
20.03.2009 20:00 -0,2 C 61 % 1028,9 hPa 0,0 l/m NO 8,7 km/h (2 Bft)
20.03.2009 21:00 -0,8 C 63 % 1028,9 hPa 0,0 l/m O-NO 6,7 km/h (2 Bft)
20.03.2009 22:00 -1,5 C 66 % 1029,0 hPa 0,0 l/m NO 5,7 km/h (1 Bft)
20.03.2009 23:00 -1,9 C 68 % 1028,9 hPa 0,0 l/m NO 5,9 km/h (2 Bft)
21.03.2009 00:00 -2,3 C 70 % 1028,5 hPa 0,0 l/m NO 5,3 km/h (1 Bft)
21.03.2009 01:00 -2,7 C 72 % 1028,3 hPa 0,0 l/m N-NO 5,2 km/h (1 Bft)
21.03.2009 02:00 -3,4 C 75 % 1028,0 hPa 0,0 l/m N 4,9 km/h (1 Bft)
21.03.2009 03:00 -4,0 C 79 % 1027,8 hPa 0,0 l/m N 5,2 km/h (1 Bft)
21.03.2009 04:00 -4,5 C 80 % 1027,8 hPa 0,0 l/m N 4,9 km/h (1 Bft)
21.03.2009 05:00 -4,9 C 82 % 1027,8 hPa 0,0 l/m N-NW 3,6 km/h (1 Bft)
21.03.2009 06:00 -5,1 C 83 % 1028,0 hPa 0,0 l/m N-NW 3,3 km/h (1 Bft)
21.03.2009 07:00 -4,9 C 86 % 1028,5 hPa 0,0 l/m N-NO 5,2 km/h (1 Bft)
21.03.2009 08:00 -3,1 C 84 % 1028,7 hPa 0,0 l/m N-NO 7,3 km/h (2 Bft)
21.03.2009 09:00 -0,8 C 78 % 1029,1 hPa 0,0 l/m O 11,1 km/h (2 Bft)
21.03.2009 10:00 0,7 C 68 % 1028,9 hPa 0,0 l/m O-SO 13,4 km/h (3 Bft)
21.03.2009 11:00 2,2 C 55 % 1028,8 hPa 0,0 l/m O 17,2 km/h (3 Bft)
21.03.2009 12:00 3,4 C 47 % 1028,4 hPa 0,0 l/m O-NO 18,6 km/h (3 Bft)
21.03.2009 13:00 4,3 C 43 % 1027,8 hPa 0,0 l/m NO 18,2 km/h (3 Bft)
21.03.2009 14:00 4,6 C 41 % 1027,7 hPa 0,0 l/m NO 16,4 km/h (3 Bft)
21.03.2009 15:00 4,9 C 40 % 1027,5 hPa 0,0 l/m NO 14,4 km/h (3 Bft)
21.03.2009 16:00 4,7 C 41 % 1027,0 hPa 0,0 l/m NO 11,3 km/h (2 Bft)
21.03.2009 17:00 4,0 C 43 % 1026,9 hPa 0,0 l/m O 9,9 km/h (2 Bft)
21.03.2009 18:00 2,7 C 49 % 1027,2 hPa 0,0 l/m O 4,4 km/h (1 Bft)
21.03.2009 19:00 1,2 C 56 % 1027,7 hPa 0,0 l/m N 1,6 km/h (1 Bft)
21.03.2009 20:00 -0,3 C 62 % 1027,8 hPa 0,0 l/m N 0,7 km/h (0 Bft)
21.03.2009 21:00 -1,3 C 67 % 1027,8 hPa 0,0 l/m N 0,1 km/h (0 Bft)
21.03.2009 22:00 -2,0 C 71 % 1027,8 hPa 0,0 l/m N 0,0 km/h (0 Bft)
21.03.2009 23:00 -2,6 C 74 % 1027,6 hPa 0,0 l/m N 0,0 km/h (0 Bft)
22.03.2009 00:00 -3,2 C 76 % 1027,5 hPa 0,0 l/m N 0,0 km/h (0 Bft)
22.03.2009 01:00 -3,6 C 81 % 1027,4 hPa 0,0 l/m N 0,1 km/h (0 Bft)
22.03.2009 02:00 -3,4 C 83 % 1027,1 hPa 0,0 l/m N 0,0 km/h (0 Bft)
22.03.2009 03:00 -3,3 C 83 % 1026,8 hPa 0,0 l/m N 0,7 km/h (0 Bft)
22.03.2009 04:00 -3,7 C 85 % 1026,6 hPa 0,0 l/m SW 1,7 km/h (1 Bft)
22.03.2009 05:00 -3,5 C 86 % 1026,8 hPa 0,0 l/m SW 0,9 km/h (0 Bft)
22.03.2009 06:00 -3,0 C 85 % 1026,6 hPa 0,0 l/m SW 5,2 km/h (1 Bft)
22.03.2009 07:00 -1,9 C 80 % 1026,7 hPa 0,0 l/m S-SW 7,9 km/h (2 Bft)
22.03.2009 08:00 -0,6 C 78 % 1026,8 hPa 0,0 l/m SW 11,3 km/h (2 Bft)
22.03.2009 09:00 1,0 C 75 % 1026,9 hPa 0,0 l/m SW 12,0 km/h (2 Bft)
22.03.2009 10:00 3,3 C 68 % 1026,6 hPa 0,0 l/m SW 17,6 km/h (3 Bft)
22.03.2009 11:00 5,5 C 57 % 1026,1 hPa 0,0 l/m S-SW 17,8 km/h (3 Bft)
22.03.2009 12:00 7,6 C 48 % 1025,6 hPa 0,0 l/m SW 21,0 km/h (4 Bft)
22.03.2009 13:00 9,0 C 41 % 1024,8 hPa 0,0 l/m SW 21,0 km/h (4 Bft)
22.03.2009 14:00 9,6 C 38 % 1024,2 hPa 0,0 l/m W-SW 15,2 km/h (3 Bft)
22.03.2009 15:00 9,4 C 40 % 1023,8 hPa 0,0 l/m W-SW 17,0 km/h (3 Bft)
22.03.2009 16:00 8,8 C 40 % 1024,4 hPa 0,0 l/m N 17,6 km/h (3 Bft)
22.03.2009 17:00 8,0 C 51 % 1024,6 hPa 0,0 l/m N-NW 18,5 km/h (3 Bft)
22.03.2009 18:00 6,5 C 61 % 1025,6 hPa 0,0 l/m N-NW 17,6 km/h (3 Bft)
22.03.2009 19:00 5,3 C 67 % 1026,2 hPa 0,0 l/m N-NO 11,0 km/h (2 Bft)
22.03.2009 20:00 4,0 C 71 % 1026,7 hPa 0,0 l/m N-NO 2,9 km/h (1 Bft)
22.03.2009 21:00 2,2 C 77 % 1026,8 hPa 0,0 l/m W-SW 1,7 km/h (1 Bft)
22.03.2009 22:00 0,8 C 82 % 1026,4 hPa 0,0 l/m SW 1,9 km/h (1 Bft)
22.03.2009 23:00 0,1 C 85 % 1026,1 hPa 0,0 l/m N 1,6 km/h (1 Bft)
Min-Datum _ 21.03.09 18.03.09 19.03.09 - - 16.03.09
_ Min-Zeit 06:35 14:45 14:30 - - 00:00
Minimum _ -5,2 C 26 % 1021,1 hPa - - 0,0 km/h (0 Bft)
Max-Datum _ 17.03.09 16.03.09 18.03.09 18.03.09 - 19.03.09
_ Max-Zeit 15:45 08:40 01:55 09:00 - 18:05
Maximum _ 12,1 C 99 % 1033,3 hPa 0,2 l/m - 33,8 km/h
NO (5 Bft)
Durchschnitt _ 2,7 C 71 % 1028,2 hPa #0,2 l/m NO 7,9 km/h (2 Bft)